Prospect, New York
Current Conditions -  °F | °C
As of 3:53 PM on Monday 24 Nov 2014 (Local Time) from KRME Reporting Station
Overcast Overcast  
Wind Chill: 20°   Ceiling: 10000
Heat Index: 20°   Visibility: 10mi
Dew Point: 11°   Wind: 15mph
Humidity: 55%   Direction: 180°S
Pressure: 29.38"   Gusts: 25mph
Location:  43.3°N, 75.15°W
Report Text: KRME 242053Z 18013G22KT 10SM OVC100 20/11 A2938 RMK AO2 SLP946 T02000106 55005
Loading
Personal Weather Stations






























Interactive Weather Map New forecast layout! Learn more

10-Day Weather Forecast

Advertisements
Track Severe Weather on mobile